sensor_id;sensor_type;location;lat;lon;timestamp;P1;durP1;ratioP1;P2;durP2;ratioP2
15645;SDS011;7922;43.622;1.476;2022-07-23T00:00:19;5.77;;;3.03;;
15645;SDS011;7922;43.622;1.476;2022-07-23T00:02:45;5.70;;;3.43;;
15645;SDS011;7922;43.622;1.476;2022-07-23T00:05:11;5.40;;;3.53;;
15645;SDS011;7922;43.622;1.476;2022-07-23T00:07:37;4.30;;;2.90;;
15645;SDS011;7922;43.622;1.476;2022-07-23T00:10:03;4.80;;;3.17;;
15645;SDS011;7922;43.622;1.476;2022-07-23T00:12:29;5.00;;;2.87;;
15645;SDS011;7922;43.622;1.476;2022-07-23T00:14:55;6.97;;;3.07;;
15645;SDS011;7922;43.622;1.476;2022-07-23T00:17:21;3.53;;;3.10;;
15645;SDS011;7922;43.622;1.476;2022-07-23T00:19:47;5.53;;;3.43;;
15645;SDS011;7922;43.622;1.476;2022-07-23T00:22:12;3.60;;;2.93;;
15645;SDS011;7922;43.622;1.476;2022-07-23T00:24:38;6.83;;;3.77;;
15645;SDS011;7922;43.622;1.476;2022-07-23T00:27:04;4.07;;;3.53;;
15645;SDS011;7922;43.622;1.476;2022-07-23T00:29:29;5.70;;;3.23;;
15645;SDS011;7922;43.622;1.476;2022-07-23T00:31:55;5.97;;;3.50;;
15645;SDS011;7922;43.622;1.476;2022-07-23T00:34:21;5.23;;;2.97;;
15645;SDS011;7922;43.622;1.476;2022-07-23T00:36:47;6.67;;;3.33;;
15645;SDS011;7922;43.622;1.476;2022-07-23T00:39:12;6.53;;;3.67;;
15645;SDS011;7922;43.622;1.476;2022-07-23T00:41:38;4.40;;;3.00;;
15645;SDS011;7922;43.622;1.476;2022-07-23T00:46:47;7.27;;;3.90;;
15645;SDS011;7922;43.622;1.476;2022-07-23T00:49:22;5.73;;;3.73;;
15645;SDS011;7922;43.622;1.476;2022-07-23T00:51:49;6.97;;;3.60;;
15645;SDS011;7922;43.622;1.476;2022-07-23T00:54:16;5.83;;;3.50;;
15645;SDS011;7922;43.622;1.476;2022-07-23T00:56:43;7.87;;;4.17;;
15645;SDS011;7922;43.622;1.476;2022-07-23T00:59:10;7.67;;;3.77;;
15645;SDS011;7922;43.622;1.476;2022-07-23T01:01:36;5.47;;;3.93;;
15645;SDS011;7922;43.622;1.476;2022-07-23T01:04:02;7.70;;;3.97;;
15645;SDS011;7922;43.622;1.476;2022-07-23T01:06:28;4.90;;;3.90;;
15645;SDS011;7922;43.622;1.476;2022-07-23T01:08:55;5.77;;;4.03;;
15645;SDS011;7922;43.622;1.476;2022-07-23T01:11:22;6.20;;;3.77;;
15645;SDS011;7922;43.622;1.476;2022-07-23T01:13:49;4.90;;;3.23;;
15645;SDS011;7922;43.622;1.476;2022-07-23T01:16:15;8.23;;;4.23;;
15645;SDS011;7922;43.622;1.476;2022-07-23T01:18:41;6.33;;;4.37;;
15645;SDS011;7922;43.622;1.476;2022-07-23T01:21:06;9.27;;;4.10;;
15645;SDS011;7922;43.622;1.476;2022-07-23T01:23:37;4.50;;;3.50;;
15645;SDS011;7922;43.622;1.476;2022-07-23T01:26:03;6.10;;;4.10;;
15645;SDS011;7922;43.622;1.476;2022-07-23T01:28:29;7.20;;;3.83;;
15645;SDS011;7922;43.622;1.476;2022-07-23T01:30:55;5.73;;;3.90;;
15645;SDS011;7922;43.622;1.476;2022-07-23T01:33:21;10.17;;;4.03;;
15645;SDS011;7922;43.622;1.476;2022-07-23T01:35:47;7.53;;;3.87;;
15645;SDS011;7922;43.622;1.476;2022-07-23T01:38:12;5.27;;;3.60;;
15645;SDS011;7922;43.622;1.476;2022-07-23T01:40:38;8.40;;;3.80;;
15645;SDS011;7922;43.622;1.476;2022-07-23T01:43:04;5.03;;;3.47;;
15645;SDS011;7922;43.622;1.476;2022-07-23T01:45:30;5.97;;;3.97;;
15645;SDS011;7922;43.622;1.476;2022-07-23T01:47:55;7.30;;;4.37;;
15645;SDS011;7922;43.622;1.476;2022-07-23T01:50:21;5.20;;;3.73;;
15645;SDS011;7922;43.622;1.476;2022-07-23T01:52:47;6.27;;;3.80;;
15645;SDS011;7922;43.622;1.476;2022-07-23T01:55:12;8.80;;;4.20;;
15645;SDS011;7922;43.622;1.476;2022-07-23T01:57:38;6.07;;;3.80;;
15645;SDS011;7922;43.622;1.476;2022-07-23T02:00:04;5.23;;;3.70;;
15645;SDS011;7922;43.622;1.476;2022-07-23T02:02:30;7.90;;;4.20;;
15645;SDS011;7922;43.622;1.476;2022-07-23T02:04:55;6.17;;;3.73;;
15645;SDS011;7922;43.622;1.476;2022-07-23T02:07:21;8.27;;;3.80;;
15645;SDS011;7922;43.622;1.476;2022-07-23T02:09:47;8.10;;;3.93;;
15645;SDS011;7922;43.622;1.476;2022-07-23T02:12:12;5.07;;;3.40;;
15645;SDS011;7922;43.622;1.476;2022-07-23T02:14:38;5.40;;;3.43;;
15645;SDS011;7922;43.622;1.476;2022-07-23T02:17:04;7.83;;;3.80;;
15645;SDS011;7922;43.622;1.476;2022-07-23T02:19:30;4.93;;;3.50;;
15645;SDS011;7922;43.622;1.476;2022-07-23T02:21:55;5.37;;;3.23;;
15645;SDS011;7922;43.622;1.476;2022-07-23T02:24:21;6.40;;;3.77;;
15645;SDS011;7922;43.622;1.476;2022-07-23T02:26:47;5.60;;;4.10;;
15645;SDS011;7922;43.622;1.476;2022-07-23T02:29:12;5.20;;;3.70;;
15645;SDS011;7922;43.622;1.476;2022-07-23T02:31:38;4.60;;;3.20;;
15645;SDS011;7922;43.622;1.476;2022-07-23T02:34:04;6.13;;;3.40;;
15645;SDS011;7922;43.622;1.476;2022-07-23T02:36:30;5.53;;;3.70;;
15645;SDS011;7922;43.622;1.476;2022-07-23T02:38:56;5.57;;;4.20;;
15645;SDS011;7922;43.622;1.476;2022-07-23T02:41:22;7.50;;;4.43;;
15645;SDS011;7922;43.622;1.476;2022-07-23T02:43:48;6.40;;;4.27;;
15645;SDS011;7922;43.622;1.476;2022-07-23T02:46:13;4.93;;;3.50;;
15645;SDS011;7922;43.622;1.476;2022-07-23T02:48:39;7.57;;;3.90;;
15645;SDS011;7922;43.622;1.476;2022-07-23T02:51:05;5.97;;;3.80;;
15645;SDS011;7922;43.622;1.476;2022-07-23T02:53:31;6.10;;;3.83;;
15645;SDS011;7922;43.622;1.476;2022-07-23T02:55:56;5.80;;;3.70;;
15645;SDS011;7922;43.622;1.476;2022-07-23T02:58:22;7.20;;;3.83;;
15645;SDS011;7922;43.622;1.476;2022-07-23T03:00:48;4.80;;;3.77;;
15645;SDS011;7922;43.622;1.476;2022-07-23T03:03:14;6.43;;;3.50;;
15645;SDS011;7922;43.622;1.476;2022-07-23T03:05:40;5.87;;;3.97;;
15645;SDS011;7922;43.622;1.476;2022-07-23T03:08:05;7.00;;;4.07;;
15645;SDS011;7922;43.622;1.476;2022-07-23T03:10:31;6.30;;;4.07;;
15645;SDS011;7922;43.622;1.476;2022-07-23T03:12:57;6.37;;;4.17;;
15645;SDS011;7922;43.622;1.476;2022-07-23T03:15:23;6.87;;;4.50;;
15645;SDS011;7922;43.622;1.476;2022-07-23T03:17:48;7.00;;;4.10;;
15645;SDS011;7922;43.622;1.476;2022-07-23T03:20:14;6.60;;;4.67;;
15645;SDS011;7922;43.622;1.476;2022-07-23T03:22:40;9.40;;;4.13;;
15645;SDS011;7922;43.622;1.476;2022-07-23T03:25:06;6.93;;;4.07;;
15645;SDS011;7922;43.622;1.476;2022-07-23T03:27:32;8.40;;;4.10;;
15645;SDS011;7922;43.622;1.476;2022-07-23T03:29:58;8.13;;;4.50;;
15645;SDS011;7922;43.622;1.476;2022-07-23T03:32:25;7.13;;;4.57;;
15645;SDS011;7922;43.622;1.476;2022-07-23T03:34:51;6.67;;;4.30;;
15645;SDS011;7922;43.622;1.476;2022-07-23T03:37:17;7.13;;;4.33;;
15645;SDS011;7922;43.622;1.476;2022-07-23T03:39:43;7.23;;;4.50;;
15645;SDS011;7922;43.622;1.476;2022-07-23T03:42:09;7.53;;;4.30;;
15645;SDS011;7922;43.622;1.476;2022-07-23T03:44:35;7.67;;;4.60;;
15645;SDS011;7922;43.622;1.476;2022-07-23T03:47:04;13.10;;;4.80;;
15645;SDS011;7922;43.622;1.476;2022-07-23T03:49:31;6.20;;;3.80;;
15645;SDS011;7922;43.622;1.476;2022-07-23T03:51:57;6.13;;;4.20;;
15645;SDS011;7922;43.622;1.476;2022-07-23T03:54:23;6.67;;;4.53;;
15645;SDS011;7922;43.622;1.476;2022-07-23T03:56:49;7.33;;;4.70;;
15645;SDS011;7922;43.622;1.476;2022-07-23T03:59:14;7.03;;;4.40;;
15645;SDS011;7922;43.622;1.476;2022-07-23T04:01:40;6.53;;;4.60;;
15645;SDS011;7922;43.622;1.476;2022-07-23T04:04:06;9.77;;;4.93;;
15645;SDS011;7922;43.622;1.476;2022-07-23T04:06:33;7.80;;;5.00;;
15645;SDS011;7922;43.622;1.476;2022-07-23T04:08:59;6.97;;;4.63;;
15645;SDS011;7922;43.622;1.476;2022-07-23T04:11:25;5.73;;;4.30;;
15645;SDS011;7922;43.622;1.476;2022-07-23T04:13:52;7.03;;;4.47;;
15645;SDS011;7922;43.622;1.476;2022-07-23T04:16:17;7.77;;;5.17;;
15645;SDS011;7922;43.622;1.476;2022-07-23T04:18:43;6.13;;;4.57;;
15645;SDS011;7922;43.622;1.476;2022-07-23T04:21:10;6.90;;;4.43;;
15645;SDS011;7922;43.622;1.476;2022-07-23T04:23:36;9.17;;;5.00;;
15645;SDS011;7922;43.622;1.476;2022-07-23T04:26:01;8.07;;;4.93;;
15645;SDS011;7922;43.622;1.476;2022-07-23T04:28:28;7.63;;;4.73;;
15645;SDS011;7922;43.622;1.476;2022-07-23T04:30:55;6.53;;;4.30;;
15645;SDS011;7922;43.622;1.476;2022-07-23T04:33:22;7.47;;;4.87;;
15645;SDS011;7922;43.622;1.476;2022-07-23T04:35:48;10.77;;;4.53;;
15645;SDS011;7922;43.622;1.476;2022-07-23T04:38:14;6.67;;;4.40;;
15645;SDS011;7922;43.622;1.476;2022-07-23T04:40:40;10.87;;;4.90;;
15645;SDS011;7922;43.622;1.476;2022-07-23T04:43:05;5.87;;;4.63;;
15645;SDS011;7922;43.622;1.476;2022-07-23T04:45:31;5.93;;;4.80;;
15645;SDS011;7922;43.622;1.476;2022-07-23T04:47:57;8.03;;;5.20;;
15645;SDS011;7922;43.622;1.476;2022-07-23T04:50:24;8.93;;;5.17;;
15645;SDS011;7922;43.622;1.476;2022-07-23T04:52:50;7.00;;;4.80;;
15645;SDS011;7922;43.622;1.476;2022-07-23T04:55:16;6.67;;;4.20;;
15645;SDS011;7922;43.622;1.476;2022-07-23T04:57:42;6.53;;;5.10;;
15645;SDS011;7922;43.622;1.476;2022-07-23T05:00:08;7.47;;;5.10;;
15645;SDS011;7922;43.622;1.476;2022-07-23T05:02:34;10.40;;;5.30;;
15645;SDS011;7922;43.622;1.476;2022-07-23T05:05:00;5.90;;;4.60;;
15645;SDS011;7922;43.622;1.476;2022-07-23T05:07:26;6.03;;;4.97;;
15645;SDS011;7922;43.622;1.476;2022-07-23T05:09:51;5.03;;;4.40;;
15645;SDS011;7922;43.622;1.476;2022-07-23T05:12:17;7.50;;;4.93;;
15645;SDS011;7922;43.622;1.476;2022-07-23T05:14:43;5.30;;;4.30;;
15645;SDS011;7922;43.622;1.476;2022-07-23T05:17:08;9.40;;;4.33;;
15645;SDS011;7922;43.622;1.476;2022-07-23T05:19:35;13.17;;;4.93;;
15645;SDS011;7922;43.622;1.476;2022-07-23T05:22:01;5.57;;;4.50;;
15645;SDS011;7922;43.622;1.476;2022-07-23T05:24:27;8.93;;;4.27;;
15645;SDS011;7922;43.622;1.476;2022-07-23T05:26:53;5.93;;;4.00;;
15645;SDS011;7922;43.622;1.476;2022-07-23T05:29:18;6.40;;;4.30;;
15645;SDS011;7922;43.622;1.476;2022-07-23T05:31:44;5.87;;;4.07;;
15645;SDS011;7922;43.622;1.476;2022-07-23T05:34:10;7.07;;;4.90;;
15645;SDS011;7922;43.622;1.476;2022-07-23T05:36:36;7.13;;;4.07;;
15645;SDS011;7922;43.622;1.476;2022-07-23T05:39:02;6.20;;;4.30;;
15645;SDS011;7922;43.622;1.476;2022-07-23T05:41:28;8.40;;;4.60;;
15645;SDS011;7922;43.622;1.476;2022-07-23T05:43:54;7.43;;;3.90;;
15645;SDS011;7922;43.622;1.476;2022-07-23T05:46:20;6.23;;;4.50;;
15645;SDS011;7922;43.622;1.476;2022-07-23T05:48:46;8.07;;;4.13;;
15645;SDS011;7922;43.622;1.476;2022-07-23T05:51:19;6.00;;;4.33;;
15645;SDS011;7922;43.622;1.476;2022-07-23T05:53:48;13.03;;;5.30;;
15645;SDS011;7922;43.622;1.476;2022-07-23T05:56:15;8.03;;;4.33;;
15645;SDS011;7922;43.622;1.476;2022-07-23T05:58:41;6.13;;;4.53;;
15645;SDS011;7922;43.622;1.476;2022-07-23T06:01:07;7.47;;;4.30;;
15645;SDS011;7922;43.622;1.476;2022-07-23T06:03:33;5.50;;;4.47;;
15645;SDS011;7922;43.622;1.476;2022-07-23T06:05:59;8.07;;;4.27;;
15645;SDS011;7922;43.622;1.476;2022-07-23T06:08:25;8.23;;;4.30;;
15645;SDS011;7922;43.622;1.476;2022-07-23T06:10:51;9.20;;;5.20;;
15645;SDS011;7922;43.622;1.476;2022-07-23T06:13:19;7.13;;;3.90;;
15645;SDS011;7922;43.622;1.476;2022-07-23T06:15:45;8.87;;;4.17;;
15645;SDS011;7922;43.622;1.476;2022-07-23T06:18:12;6.73;;;4.50;;
15645;SDS011;7922;43.622;1.476;2022-07-23T06:20:37;6.17;;;4.57;;
15645;SDS011;7922;43.622;1.476;2022-07-23T06:23:03;5.33;;;3.80;;
15645;SDS011;7922;43.622;1.476;2022-07-23T06:25:29;6.83;;;4.33;;
15645;SDS011;7922;43.622;1.476;2022-07-23T06:27:55;8.47;;;4.33;;
15645;SDS011;7922;43.622;1.476;2022-07-23T06:30:21;5.80;;;3.90;;
15645;SDS011;7922;43.622;1.476;2022-07-23T06:32:47;9.07;;;3.67;;
15645;SDS011;7922;43.622;1.476;2022-07-23T06:35:14;6.27;;;3.60;;
15645;SDS011;7922;43.622;1.476;2022-07-23T06:37:40;7.10;;;3.97;;
15645;SDS011;7922;43.622;1.476;2022-07-23T06:40:06;8.13;;;3.83;;
15645;SDS011;7922;43.622;1.476;2022-07-23T06:42:32;5.97;;;3.67;;
15645;SDS011;7922;43.622;1.476;2022-07-23T06:44:58;9.77;;;4.20;;
15645;SDS011;7922;43.622;1.476;2022-07-23T06:47:24;6.40;;;4.13;;
15645;SDS011;7922;43.622;1.476;2022-07-23T06:49:49;6.73;;;4.00;;
15645;SDS011;7922;43.622;1.476;2022-07-23T06:52:15;8.60;;;3.73;;
15645;SDS011;7922;43.622;1.476;2022-07-23T06:54:41;7.87;;;3.63;;
15645;SDS011;7922;43.622;1.476;2022-07-23T06:57:06;6.60;;;3.47;;
15645;SDS011;7922;43.622;1.476;2022-07-23T06:59:33;7.37;;;3.57;;
15645;SDS011;7922;43.622;1.476;2022-07-23T07:02:01;5.57;;;3.87;;
15645;SDS011;7922;43.622;1.476;2022-07-23T07:04:27;6.27;;;3.33;;
15645;SDS011;7922;43.622;1.476;2022-07-23T07:06:53;6.57;;;3.50;;
15645;SDS011;7922;43.622;1.476;2022-07-23T07:09:18;7.70;;;3.23;;
15645;SDS011;7922;43.622;1.476;2022-07-23T07:11:44;6.67;;;3.10;;
15645;SDS011;7922;43.622;1.476;2022-07-23T07:14:10;8.83;;;3.47;;
15645;SDS011;7922;43.622;1.476;2022-07-23T07:16:36;7.90;;;3.80;;
15645;SDS011;7922;43.622;1.476;2022-07-23T07:19:02;6.50;;;3.43;;
15645;SDS011;7922;43.622;1.476;2022-07-23T07:21:28;4.77;;;3.40;;
15645;SDS011;7922;43.622;1.476;2022-07-23T07:23:54;4.67;;;3.00;;
15645;SDS011;7922;43.622;1.476;2022-07-23T07:26:19;6.07;;;3.67;;
15645;SDS011;7922;43.622;1.476;2022-07-23T07:28:45;5.43;;;3.10;;
15645;SDS011;7922;43.622;1.476;2022-07-23T07:31:11;6.07;;;3.43;;
15645;SDS011;7922;43.622;1.476;2022-07-23T07:33:36;6.10;;;3.47;;
15645;SDS011;7922;43.622;1.476;2022-07-23T07:36:02;5.57;;;3.43;;
15645;SDS011;7922;43.622;1.476;2022-07-23T07:38:29;4.83;;;3.43;;
15645;SDS011;7922;43.622;1.476;2022-07-23T07:40:54;8.03;;;3.53;;
15645;SDS011;7922;43.622;1.476;2022-07-23T07:43:20;5.03;;;3.13;;
15645;SDS011;7922;43.622;1.476;2022-07-23T07:45:46;7.00;;;3.93;;
15645;SDS011;7922;43.622;1.476;2022-07-23T07:48:12;4.00;;;3.23;;
15645;SDS011;7922;43.622;1.476;2022-07-23T07:50:37;5.07;;;3.40;;
15645;SDS011;7922;43.622;1.476;2022-07-23T07:53:03;7.00;;;3.70;;
15645;SDS011;7922;43.622;1.476;2022-07-23T07:55:29;5.30;;;3.50;;
15645;SDS011;7922;43.622;1.476;2022-07-23T07:57:55;4.70;;;3.33;;
15645;SDS011;7922;43.622;1.476;2022-07-23T08:00:21;6.83;;;3.00;;
15645;SDS011;7922;43.622;1.476;2022-07-23T08:02:49;5.97;;;3.60;;
15645;SDS011;7922;43.622;1.476;2022-07-23T08:05:23;5.30;;;3.37;;
15645;SDS011;7922;43.622;1.476;2022-07-23T08:07:50;5.07;;;2.83;;
15645;SDS011;7922;43.622;1.476;2022-07-23T08:10:16;6.53;;;3.07;;
15645;SDS011;7922;43.622;1.476;2022-07-23T08:12:43;4.30;;;3.23;;
15645;SDS011;7922;43.622;1.476;2022-07-23T08:15:11;5.43;;;3.30;;
15645;SDS011;7922;43.622;1.476;2022-07-23T08:17:42;4.57;;;3.03;;
15645;SDS011;7922;43.622;1.476;2022-07-23T08:20:09;6.30;;;3.83;;
15645;SDS011;7922;43.622;1.476;2022-07-23T08:25:28;5.90;;;3.40;;
15645;SDS011;7922;43.622;1.476;2022-07-23T08:27:57;5.77;;;2.90;;
15645;SDS011;7922;43.622;1.476;2022-07-23T08:30:24;9.33;;;3.87;;
15645;SDS011;7922;43.622;1.476;2022-07-23T08:32:52;5.80;;;3.17;;
15645;SDS011;7922;43.622;1.476;2022-07-23T08:35:22;6.83;;;3.90;;
15645;SDS011;7922;43.622;1.476;2022-07-23T08:37:59;6.47;;;3.50;;
15645;SDS011;7922;43.622;1.476;2022-07-23T08:40:27;5.07;;;3.63;;
15645;SDS011;7922;43.622;1.476;2022-07-23T08:42:54;5.10;;;3.30;;
15645;SDS011;7922;43.622;1.476;2022-07-23T08:45:21;5.77;;;3.43;;
15645;SDS011;7922;43.622;1.476;2022-07-23T08:47:55;5.83;;;3.30;;
15645;SDS011;7922;43.622;1.476;2022-07-23T08:50:24;6.67;;;3.47;;
15645;SDS011;7922;43.622;1.476;2022-07-23T08:52:50;5.07;;;3.30;;
15645;SDS011;7922;43.622;1.476;2022-07-23T08:55:17;4.63;;;3.07;;
15645;SDS011;7922;43.622;1.476;2022-07-23T08:57:49;3.13;;;2.73;;
15645;SDS011;7922;43.622;1.476;2022-07-23T09:00:18;8.83;;;2.83;;
15645;SDS011;7922;43.622;1.476;2022-07-23T09:02:46;6.30;;;2.73;;
15645;SDS011;7922;43.622;1.476;2022-07-23T09:05:13;7.37;;;2.70;;
15645;SDS011;7922;43.622;1.476;2022-07-23T09:08:26;4.73;;;2.80;;
15645;SDS011;7922;43.622;1.476;2022-07-23T09:18:56;4.07;;;1.97;;
15645;SDS011;7922;43.622;1.476;2022-07-23T09:21:25;4.33;;;2.23;;
15645;SDS011;7922;43.622;1.476;2022-07-23T09:26:26;4.00;;;2.30;;
15645;SDS011;7922;43.622;1.476;2022-07-23T09:31:32;4.40;;;2.33;;
15645;SDS011;7922;43.622;1.476;2022-07-23T09:34:08;4.60;;;2.77;;
15645;SDS011;7922;43.622;1.476;2022-07-23T09:36:36;5.60;;;2.60;;
15645;SDS011;7922;43.622;1.476;2022-07-23T09:39:03;7.47;;;2.87;;
15645;SDS011;7922;43.622;1.476;2022-07-23T09:41:37;3.23;;;2.63;;
15645;SDS011;7922;43.622;1.476;2022-07-23T09:44:07;5.20;;;2.47;;
15645;SDS011;7922;43.622;1.476;2022-07-23T09:46:38;4.27;;;2.60;;
15645;SDS011;7922;43.622;1.476;2022-07-23T09:49:15;3.07;;;2.30;;
15645;SDS011;7922;43.622;1.476;2022-07-23T09:56:49;3.97;;;2.90;;
15645;SDS011;7922;43.622;1.476;2022-07-23T09:59:16;3.87;;;2.50;;
15645;SDS011;7922;43.622;1.476;2022-07-23T10:01:44;4.33;;;2.67;;
15645;SDS011;7922;43.622;1.476;2022-07-23T10:04:11;5.53;;;2.50;;
15645;SDS011;7922;43.622;1.476;2022-07-23T10:06:38;3.53;;;2.20;;
15645;SDS011;7922;43.622;1.476;2022-07-23T10:09:05;6.10;;;2.30;;
15645;SDS011;7922;43.622;1.476;2022-07-23T10:11:33;5.00;;;2.20;;
15645;SDS011;7922;43.622;1.476;2022-07-23T10:14:00;4.57;;;2.50;;
15645;SDS011;7922;43.622;1.476;2022-07-23T10:16:29;4.13;;;2.27;;
15645;SDS011;7922;43.622;1.476;2022-07-23T10:18:55;3.00;;;2.17;;
15645;SDS011;7922;43.622;1.476;2022-07-23T10:21:23;4.63;;;2.20;;
15645;SDS011;7922;43.622;1.476;2022-07-23T10:24:10;3.63;;;2.10;;
15645;SDS011;7922;43.622;1.476;2022-07-23T10:29:22;2.73;;;2.10;;
15645;SDS011;7922;43.622;1.476;2022-07-23T10:37:45;2.20;;;1.93;;
15645;SDS011;7922;43.622;1.476;2022-07-23T10:40:18;4.23;;;1.80;;
15645;SDS011;7922;43.622;1.476;2022-07-23T10:42:47;2.27;;;1.60;;
15645;SDS011;7922;43.622;1.476;2022-07-23T10:45:25;3.17;;;1.70;;
15645;SDS011;7922;43.622;1.476;2022-07-23T10:48:14;3.07;;;1.50;;
15645;SDS011;7922;43.622;1.476;2022-07-23T10:50:42;3.90;;;1.83;;
15645;SDS011;7922;43.622;1.476;2022-07-23T10:53:10;1.93;;;1.60;;
15645;SDS011;7922;43.622;1.476;2022-07-23T10:55:40;2.00;;;1.70;;
15645;SDS011;7922;43.622;1.476;2022-07-23T10:58:10;3.00;;;1.57;;
15645;SDS011;7922;43.622;1.476;2022-07-23T11:00:41;2.13;;;1.40;;
15645;SDS011;7922;43.622;1.476;2022-07-23T11:05:55;2.30;;;1.53;;
15645;SDS011;7922;43.622;1.476;2022-07-23T11:08:20;1.47;;;1.10;;
15645;SDS011;7922;43.622;1.476;2022-07-23T11:13:28;1.33;;;1.23;;
15645;SDS011;7922;43.622;1.476;2022-07-23T11:34:54;3.17;;;1.30;;
15645;SDS011;7922;43.622;1.476;2022-07-23T11:40:05;3.03;;;1.40;;
15645;SDS011;7922;43.622;1.476;2022-07-23T11:42:33;2.70;;;1.70;;
15645;SDS011;7922;43.622;1.476;2022-07-23T11:45:00;1.87;;;1.50;;
15645;SDS011;7922;43.622;1.476;2022-07-23T11:47:26;2.83;;;1.50;;
15645;SDS011;7922;43.622;1.476;2022-07-23T11:49:52;2.13;;;1.60;;
15645;SDS011;7922;43.622;1.476;2022-07-23T11:52:19;3.07;;;1.57;;
15645;SDS011;7922;43.622;1.476;2022-07-23T11:54:58;2.80;;;1.40;;
15645;SDS011;7922;43.622;1.476;2022-07-23T11:57:33;3.33;;;2.00;;
15645;SDS011;7922;43.622;1.476;2022-07-23T12:02:36;1.20;;;1.10;;
15645;SDS011;7922;43.622;1.476;2022-07-23T12:05:03;2.27;;;1.43;;
15645;SDS011;7922;43.622;1.476;2022-07-23T12:07:34;2.60;;;1.50;;
15645;SDS011;7922;43.622;1.476;2022-07-23T12:10:09;2.40;;;1.93;;
15645;SDS011;7922;43.622;1.476;2022-07-23T12:12:38;3.77;;;2.13;;
15645;SDS011;7922;43.622;1.476;2022-07-23T12:15:06;2.20;;;1.60;;
15645;SDS011;7922;43.622;1.476;2022-07-23T12:17:34;3.90;;;1.93;;
15645;SDS011;7922;43.622;1.476;2022-07-23T12:20:03;2.17;;;1.70;;
15645;SDS011;7922;43.622;1.476;2022-07-23T12:22:34;1.90;;;1.70;;
15645;SDS011;7922;43.622;1.476;2022-07-23T12:25:04;1.80;;;1.70;;
15645;SDS011;7922;43.622;1.476;2022-07-23T12:27:35;2.53;;;2.33;;
15645;SDS011;7922;43.622;1.476;2022-07-23T12:32:51;2.73;;;2.20;;
15645;SDS011;7922;43.622;1.476;2022-07-23T12:35:19;3.90;;;1.93;;
15645;SDS011;7922;43.622;1.476;2022-07-23T12:37:47;2.80;;;2.10;;
15645;SDS011;7922;43.622;1.476;2022-07-23T12:43:05;2.90;;;2.20;;
15645;SDS011;7922;43.622;1.476;2022-07-23T12:45:47;3.83;;;2.33;;
15645;SDS011;7922;43.622;1.476;2022-07-23T12:48:20;3.33;;;2.50;;
15645;SDS011;7922;43.622;1.476;2022-07-23T12:50:51;3.63;;;2.80;;
15645;SDS011;7922;43.622;1.476;2022-07-23T12:55:48;3.83;;;2.60;;
15645;SDS011;7922;43.622;1.476;2022-07-23T12:58:16;5.00;;;3.00;;
15645;SDS011;7922;43.622;1.476;2022-07-23T13:03:20;4.00;;;2.77;;
15645;SDS011;7922;43.622;1.476;2022-07-23T13:05:52;4.70;;;2.90;;
15645;SDS011;7922;43.622;1.476;2022-07-23T13:08:18;3.60;;;2.60;;
15645;SDS011;7922;43.622;1.476;2022-07-23T13:10:44;3.17;;;2.70;;
15645;SDS011;7922;43.622;1.476;2022-07-23T13:13:13;4.80;;;2.80;;
15645;SDS011;7922;43.622;1.476;2022-07-23T13:15:40;7.13;;;3.10;;
15645;SDS011;7922;43.622;1.476;2022-07-23T13:18:07;5.17;;;3.43;;
15645;SDS011;7922;43.622;1.476;2022-07-23T13:20:33;4.27;;;3.10;;
15645;SDS011;7922;43.622;1.476;2022-07-23T13:22:59;3.33;;;2.77;;
15645;SDS011;7922;43.622;1.476;2022-07-23T13:25:25;4.37;;;2.93;;
15645;SDS011;7922;43.622;1.476;2022-07-23T13:27:51;5.43;;;3.40;;
15645;SDS011;7922;43.622;1.476;2022-07-23T13:30:16;2.93;;;2.73;;
15645;SDS011;7922;43.622;1.476;2022-07-23T13:32:42;6.23;;;3.40;;
15645;SDS011;7922;43.622;1.476;2022-07-23T13:35:08;3.30;;;3.00;;
15645;SDS011;7922;43.622;1.476;2022-07-23T13:37:34;6.63;;;3.30;;
15645;SDS011;7922;43.622;1.476;2022-07-23T13:40:00;4.43;;;3.40;;
15645;SDS011;7922;43.622;1.476;2022-07-23T13:42:26;4.33;;;3.30;;
15645;SDS011;7922;43.622;1.476;2022-07-23T13:44:52;4.13;;;3.30;;
15645;SDS011;7922;43.622;1.476;2022-07-23T13:47:18;4.13;;;3.70;;
15645;SDS011;7922;43.622;1.476;2022-07-23T13:49:43;5.25;;;3.80;;
15645;SDS011;7922;43.622;1.476;2022-07-23T13:52:09;3.78;;;3.08;;
15645;SDS011;7922;43.622;1.476;2022-07-23T13:54:35;4.57;;;3.42;;
15645;SDS011;7922;43.622;1.476;2022-07-23T13:57:01;4.00;;;3.57;;
15645;SDS011;7922;43.622;1.476;2022-07-23T13:59:27;6.13;;;3.67;;
15645;SDS011;7922;43.622;1.476;2022-07-23T14:01:53;5.05;;;3.72;;
15645;SDS011;7922;43.622;1.476;2022-07-23T14:04:19;4.00;;;3.00;;
15645;SDS011;7922;43.622;1.476;2022-07-23T14:06:45;5.30;;;3.40;;
15645;SDS011;7922;43.622;1.476;2022-07-23T14:09:11;6.18;;;3.97;;
15645;SDS011;7922;43.622;1.476;2022-07-23T14:11:36;5.32;;;3.22;;
15645;SDS011;7922;43.622;1.476;2022-07-23T14:14:03;4.97;;;3.53;;
15645;SDS011;7922;43.622;1.476;2022-07-23T14:16:30;4.47;;;3.10;;
15645;SDS011;7922;43.622;1.476;2022-07-23T14:18:55;3.97;;;3.20;;
15645;SDS011;7922;43.622;1.476;2022-07-23T14:21:21;3.92;;;3.30;;
15645;SDS011;7922;43.622;1.476;2022-07-23T14:23:47;5.18;;;3.28;;
15645;SDS011;7922;43.622;1.476;2022-07-23T14:26:13;6.07;;;3.25;;
15645;SDS011;7922;43.622;1.476;2022-07-23T14:28:38;4.38;;;3.13;;
15645;SDS011;7922;43.622;1.476;2022-07-23T14:31:04;6.65;;;3.20;;
15645;SDS011;7922;43.622;1.476;2022-07-23T14:33:30;5.13;;;3.35;;
15645;SDS011;7922;43.622;1.476;2022-07-23T14:35:56;4.32;;;3.42;;
15645;SDS011;7922;43.622;1.476;2022-07-23T14:38:23;5.32;;;3.58;;
15645;SDS011;7922;43.622;1.476;2022-07-23T14:40:48;4.90;;;3.65;;
15645;SDS011;7922;43.622;1.476;2022-07-23T14:43:14;4.95;;;3.30;;
15645;SDS011;7922;43.622;1.476;2022-07-23T14:45:40;5.65;;;3.88;;
15645;SDS011;7922;43.622;1.476;2022-07-23T14:48:06;4.82;;;3.50;;
15645;SDS011;7922;43.622;1.476;2022-07-23T14:50:31;4.60;;;3.60;;
15645;SDS011;7922;43.622;1.476;2022-07-23T14:52:57;4.55;;;3.72;;
15645;SDS011;7922;43.622;1.476;2022-07-23T14:55:23;3.90;;;3.05;;
15645;SDS011;7922;43.622;1.476;2022-07-23T14:57:49;4.72;;;3.58;;
15645;SDS011;7922;43.622;1.476;2022-07-23T15:00:16;4.15;;;3.60;;
15645;SDS011;7922;43.622;1.476;2022-07-23T15:02:42;4.32;;;3.33;;
15645;SDS011;7922;43.622;1.476;2022-07-23T15:05:08;3.83;;;3.33;;
15645;SDS011;7922;43.622;1.476;2022-07-23T15:07:34;3.70;;;3.40;;
15645;SDS011;7922;43.622;1.476;2022-07-23T15:10:00;3.95;;;3.30;;
15645;SDS011;7922;43.622;1.476;2022-07-23T15:12:26;3.80;;;2.90;;
15645;SDS011;7922;43.622;1.476;2022-07-23T15:14:51;4.32;;;3.70;;
15645;SDS011;7922;43.622;1.476;2022-07-23T15:17:17;5.07;;;4.03;;
15645;SDS011;7922;43.622;1.476;2022-07-23T15:19:43;4.35;;;3.72;;
15645;SDS011;7922;43.622;1.476;2022-07-23T15:22:08;7.00;;;3.60;;
15645;SDS011;7922;43.622;1.476;2022-07-23T15:24:34;4.90;;;3.63;;
15645;SDS011;7922;43.622;1.476;2022-07-23T15:27:00;3.45;;;3.13;;
15645;SDS011;7922;43.622;1.476;2022-07-23T15:29:26;3.47;;;3.17;;
15645;SDS011;7922;43.622;1.476;2022-07-23T15:31:51;4.20;;;3.80;;
15645;SDS011;7922;43.622;1.476;2022-07-23T15:34:17;5.53;;;3.63;;
15645;SDS011;7922;43.622;1.476;2022-07-23T15:36:43;5.03;;;3.60;;
15645;SDS011;7922;43.622;1.476;2022-07-23T15:39:09;4.40;;;3.85;;
15645;SDS011;7922;43.622;1.476;2022-07-23T15:41:34;4.95;;;3.75;;
15645;SDS011;7922;43.622;1.476;2022-07-23T15:44:00;4.97;;;3.78;;
15645;SDS011;7922;43.622;1.476;2022-07-23T15:46:26;8.50;;;3.85;;
15645;SDS011;7922;43.622;1.476;2022-07-23T15:48:53;4.13;;;3.50;;
15645;SDS011;7922;43.622;1.476;2022-07-23T15:51:19;5.28;;;3.85;;
15645;SDS011;7922;43.622;1.476;2022-07-23T15:53:45;4.15;;;3.38;;
15645;SDS011;7922;43.622;1.476;2022-07-23T15:56:10;3.90;;;3.53;;
15645;SDS011;7922;43.622;1.476;2022-07-23T15:58:36;4.40;;;3.75;;
15645;SDS011;7922;43.622;1.476;2022-07-23T16:01:03;3.83;;;3.40;;
15645;SDS011;7922;43.622;1.476;2022-07-23T16:03:31;4.30;;;3.90;;
15645;SDS011;7922;43.622;1.476;2022-07-23T16:06:00;4.10;;;3.20;;
15645;SDS011;7922;43.622;1.476;2022-07-23T16:08:27;4.35;;;3.85;;
15645;SDS011;7922;43.622;1.476;2022-07-23T16:10:53;3.90;;;3.38;;